createdAt,value
2023-01-22T00:00:57.677Z,11.50
2023-01-22T00:03:24.763Z,8.20
2023-01-22T00:05:52.462Z,6.18
2023-01-22T00:08:20.208Z,6.85
2023-01-22T00:10:55.201Z,5.60
2023-01-22T00:13:23.753Z,5.80
2023-01-22T00:15:50.891Z,6.25
2023-01-22T00:18:19.037Z,9.40
2023-01-22T00:20:53.408Z,7.32
2023-01-22T00:23:20.759Z,5.25
2023-01-22T00:25:47.838Z,6.28
2023-01-22T00:28:16.908Z,7.80
2023-01-22T00:30:44.396Z,10.00
2023-01-22T00:33:11.740Z,9.10
2023-01-22T00:35:39.696Z,8.45
2023-01-22T00:38:06.704Z,7.68
2023-01-22T00:40:33.919Z,6.30
2023-01-22T00:43:01.065Z,7.65
2023-01-22T00:45:29.090Z,7.57
2023-01-22T00:47:56.471Z,10.98
2023-01-22T00:50:23.459Z,12.55
2023-01-22T00:52:50.417Z,6.97
2023-01-22T00:55:17.503Z,8.98
2023-01-22T00:57:45.179Z,6.53
2023-01-22T01:00:18.277Z,8.95
2023-01-22T01:03:05.199Z,7.78
2023-01-22T01:05:32.215Z,11.43
2023-01-22T01:07:59.221Z,4.88
2023-01-22T01:10:26.267Z,7.20
2023-01-22T01:12:53.244Z,8.82
2023-01-22T01:15:20.400Z,5.65
2023-01-22T01:17:47.417Z,8.65
2023-01-22T01:20:14.440Z,7.38
2023-01-22T01:22:41.572Z,7.25
2023-01-22T01:25:08.685Z,4.32
2023-01-22T01:27:35.661Z,3.78
2023-01-22T01:30:02.646Z,7.38
2023-01-22T01:32:29.704Z,9.20
2023-01-22T01:34:56.641Z,6.40
2023-01-22T01:37:23.650Z,6.32
2023-01-22T01:39:52.606Z,9.15
2023-01-22T01:42:30.893Z,4.88
2023-01-22T01:45:25.101Z,6.55
2023-01-22T01:48:09.705Z,7.53
2023-01-22T01:50:40.191Z,4.70
2023-01-22T01:53:08.132Z,9.48
2023-01-22T01:55:35.877Z,8.00
2023-01-22T01:58:14.648Z,4.90
2023-01-22T02:00:44.710Z,6.85
2023-01-22T02:03:11.937Z,8.27
2023-01-22T02:05:40.168Z,9.00
2023-01-22T02:08:09.261Z,4.13
2023-01-22T02:10:37.447Z,6.00
2023-01-22T02:13:09.978Z,4.32
2023-01-22T02:15:39.100Z,4.75
2023-01-22T02:18:06.111Z,2.85
2023-01-22T02:20:40.632Z,4.00
2023-01-22T02:23:08.412Z,5.80
2023-01-22T02:25:35.599Z,8.02
2023-01-22T02:28:02.884Z,4.65
2023-01-22T02:30:29.912Z,5.97
2023-01-22T02:32:57.267Z,5.15
2023-01-22T02:35:24.781Z,5.43
2023-01-22T02:37:51.961Z,3.88
2023-01-22T02:40:19.480Z,4.18
2023-01-22T02:42:47.389Z,4.07
2023-01-22T02:45:14.537Z,3.33
2023-01-22T02:47:41.697Z,4.97
2023-01-22T02:50:09.354Z,4.68
2023-01-22T02:52:39.039Z,4.32
2023-01-22T02:55:06.409Z,7.50
2023-01-22T02:57:33.501Z,5.18
2023-01-22T03:00:02.226Z,5.97
2023-01-22T03:02:29.771Z,7.45
2023-01-22T03:05:03.743Z,7.10
2023-01-22T03:10:15.842Z,7.97
2023-01-22T03:13:03.963Z,10.82
2023-01-22T03:15:49.873Z,13.77
2023-01-22T03:18:37.385Z,9.10
2023-01-22T03:21:14.745Z,9.15
2023-01-22T03:23:45.155Z,14.43
2023-01-22T03:26:12.500Z,11.35
2023-01-22T03:28:39.597Z,13.77
2023-01-22T03:31:08.185Z,9.38
2023-01-22T03:33:36.268Z,8.95
2023-01-22T03:36:08.751Z,12.15
2023-01-22T03:38:37.655Z,7.82
2023-01-22T03:41:10.237Z,4.63
2023-01-22T03:43:37.379Z,8.63
2023-01-22T03:46:12.120Z,4.63
2023-01-22T03:48:42.882Z,5.15
2023-01-22T03:51:15.787Z,6.00
2023-01-22T03:53:44.414Z,5.40
2023-01-22T03:56:16.457Z,6.07
2023-01-22T03:58:44.139Z,4.65
2023-01-22T04:01:17.141Z,6.38
2023-01-22T04:03:45.561Z,8.30
2023-01-22T04:06:13.419Z,4.97
2023-01-22T04:08:42.679Z,5.80
2023-01-22T04:11:11.088Z,3.25
2023-01-22T04:13:40.787Z,3.83
2023-01-22T04:16:09.132Z,3.10
2023-01-22T04:18:54.984Z,3.75
2023-01-22T04:21:49.115Z,3.95
2023-01-22T04:24:16.603Z,4.43
2023-01-22T04:26:43.665Z,4.43
2023-01-22T04:29:12.536Z,9.82
2023-01-22T04:31:40.240Z,3.17
2023-01-22T04:34:07.432Z,2.83
2023-01-22T04:36:41.203Z,2.28
2023-01-22T04:39:08.337Z,3.10
2023-01-22T04:41:35.325Z,3.28
2023-01-22T04:44:02.409Z,2.58
2023-01-22T04:46:31.865Z,3.25
2023-01-22T04:48:59.132Z,4.28
2023-01-22T04:51:26.449Z,5.60
2023-01-22T04:53:54.390Z,3.85
2023-01-22T04:56:22.452Z,4.47
2023-01-22T04:58:49.724Z,2.65
2023-01-22T05:01:16.960Z,4.28
2023-01-22T05:03:44.988Z,4.82
2023-01-22T05:06:12.104Z,3.13
2023-01-22T05:08:39.482Z,3.42
2023-01-22T05:11:06.431Z,2.92
2023-01-22T05:13:47.916Z,4.03
2023-01-22T05:16:15.730Z,6.00
2023-01-22T05:18:42.752Z,4.68
2023-01-22T05:21:09.747Z,3.72
2023-01-22T05:23:37.813Z,9.07
2023-01-22T05:26:05.208Z,4.57
2023-01-22T05:28:50.505Z,3.47
2023-01-22T05:31:30.604Z,3.30
2023-01-22T05:34:06.060Z,2.92
2023-01-22T05:36:33.372Z,6.60
2023-01-22T05:39:06.290Z,3.03
2023-01-22T05:41:34.460Z,6.15
2023-01-22T05:44:02.480Z,4.97
2023-01-22T05:46:29.915Z,4.82
2023-01-22T05:49:15.461Z,8.15
2023-01-22T05:51:42.517Z,6.45
2023-01-22T05:54:09.897Z,3.45
2023-01-22T05:56:39.374Z,6.85
2023-01-22T05:59:07.353Z,2.47
2023-01-22T06:01:35.008Z,3.38
2023-01-22T06:04:02.790Z,5.80
2023-01-22T06:06:29.721Z,3.47
2023-01-22T06:08:56.874Z,4.80
2023-01-22T06:11:27.454Z,3.13
2023-01-22T06:13:54.489Z,3.35
2023-01-22T06:16:22.787Z,4.82
2023-01-22T06:19:03.194Z,4.60
2023-01-22T06:21:37.779Z,3.40
2023-01-22T06:24:05.252Z,4.55
2023-01-22T06:26:33.231Z,2.95
2023-01-22T06:29:01.224Z,7.18
2023-01-22T06:31:29.178Z,4.13
2023-01-22T06:33:57.254Z,2.55
2023-01-22T06:36:24.247Z,4.97
2023-01-22T06:38:51.577Z,2.80
2023-01-22T06:41:32.485Z,2.15
2023-01-22T06:44:02.137Z,3.40
2023-01-22T06:46:29.113Z,5.22
2023-01-22T06:49:03.331Z,2.75
2023-01-22T06:51:31.339Z,3.08
2023-01-22T06:54:00.299Z,4.15
2023-01-22T06:56:28.288Z,3.22
2023-01-22T06:58:57.210Z,4.45
2023-01-22T07:01:25.994Z,5.45
2023-01-22T07:03:53.283Z,8.95
2023-01-22T07:06:20.371Z,4.30
2023-01-22T07:08:47.523Z,4.07
2023-01-22T07:11:15.404Z,4.03
2023-01-22T07:13:42.919Z,2.47
2023-01-22T07:16:09.934Z,5.07
2023-01-22T07:18:36.948Z,2.80
2023-01-22T07:21:05.783Z,2.42
2023-01-22T07:23:33.013Z,6.15
2023-01-22T07:26:00.113Z,3.28
2023-01-22T07:28:27.265Z,3.95
2023-01-22T07:30:54.341Z,5.22
2023-01-22T07:33:21.439Z,7.72
2023-01-22T07:35:57.606Z,5.32
2023-01-22T07:38:27.832Z,6.63
2023-01-22T07:41:00.191Z,5.30
2023-01-22T07:43:27.457Z,3.38
2023-01-22T07:45:56.572Z,9.60
2023-01-22T07:48:24.742Z,12.88
2023-01-22T07:50:51.781Z,8.00
2023-01-22T07:53:19.753Z,12.57
2023-01-22T07:55:47.667Z,7.72
2023-01-22T07:58:15.720Z,8.02
2023-01-22T08:00:43.290Z,11.35
2023-01-22T08:03:15.476Z,10.27
2023-01-22T08:05:44.392Z,20.58
2023-01-22T08:08:18.507Z,6.97
2023-01-22T08:10:47.323Z,7.20
2023-01-22T08:13:14.962Z,6.68
2023-01-22T08:15:45.892Z,15.30
2023-01-22T08:18:13.971Z,9.25
2023-01-22T08:20:51.467Z,9.88
2023-01-22T08:23:21.718Z,7.57
2023-01-22T08:25:49.705Z,10.07
2023-01-22T08:28:17.998Z,9.63
2023-01-22T08:30:46.663Z,7.82
2023-01-22T08:33:15.970Z,12.80
2023-01-22T08:35:44.945Z,11.27
2023-01-22T08:38:14.281Z,14.00
2023-01-22T08:40:42.304Z,16.00
2023-01-22T08:43:09.443Z,11.77
2023-01-22T08:45:38.216Z,23.48
2023-01-22T08:48:06.116Z,21.70
2023-01-22T08:50:33.060Z,18.58
2023-01-22T08:52:59.994Z,19.30
2023-01-22T08:55:27.893Z,9.45
2023-01-22T08:57:56.247Z,41.35
2023-01-22T09:00:24.567Z,11.77
2023-01-22T09:02:51.570Z,9.15
2023-01-22T09:05:18.442Z,14.02
2023-01-22T09:07:45.353Z,8.55
2023-01-22T09:10:12.943Z,9.85
2023-01-22T09:12:40.518Z,6.40
2023-01-22T09:15:08.361Z,10.38
2023-01-22T09:17:35.324Z,11.23
2023-01-22T09:20:02.382Z,9.27
2023-01-22T09:22:29.309Z,13.43
2023-01-22T09:24:56.233Z,8.45
2023-01-22T09:27:23.151Z,5.72
2023-01-22T09:29:50.072Z,5.32
2023-01-22T09:32:17.127Z,9.10
2023-01-22T09:34:44.056Z,6.85
2023-01-22T09:37:15.081Z,7.45
2023-01-22T09:39:42.211Z,6.57
2023-01-22T09:42:17.219Z,6.32
2023-01-22T09:44:47.827Z,8.98
2023-01-22T09:47:39.023Z,6.72
2023-01-22T09:50:19.267Z,5.22
2023-01-22T09:52:46.587Z,6.28
2023-01-22T09:55:16.876Z,5.30
2023-01-22T09:57:47.069Z,8.07
2023-01-22T10:00:30.139Z,4.72
2023-01-22T10:03:02.621Z,6.50
2023-01-22T10:05:41.141Z,6.13
2023-01-22T10:08:20.297Z,6.15
2023-01-22T10:10:47.666Z,4.65
2023-01-22T10:13:19.264Z,4.20
2023-01-22T10:15:47.404Z,4.22
2023-01-22T10:18:29.585Z,3.67
2023-01-22T10:20:59.733Z,3.90
2023-01-22T10:23:27.181Z,4.47
2023-01-22T10:26:00.231Z,4.15
2023-01-22T10:28:28.284Z,3.72
2023-01-22T10:30:58.900Z,3.70
2023-01-22T10:33:27.903Z,3.20
2023-01-22T10:35:56.895Z,4.00
2023-01-22T10:40:55.263Z,4.20
2023-01-22T10:43:22.619Z,4.53
2023-01-22T10:45:59.689Z,5.65
2023-01-22T10:48:26.898Z,5.43
2023-01-22T10:51:12.489Z,3.45
2023-01-22T10:53:50.140Z,3.92
2023-01-22T10:56:32.753Z,3.45
2023-01-22T10:59:04.528Z,3.22
2023-01-22T11:01:41.881Z,4.13
2023-01-22T11:04:32.984Z,5.22
2023-01-22T11:07:18.321Z,5.22
2023-01-22T11:10:07.412Z,3.88
2023-01-22T11:12:42.516Z,4.20
2023-01-22T11:15:34.846Z,2.65
2023-01-22T11:18:03.234Z,3.60
2023-01-22T11:20:53.486Z,3.13
2023-01-22T11:23:43.560Z,3.10
2023-01-22T11:26:28.814Z,5.22
2023-01-22T11:29:08.833Z,3.80
2023-01-22T11:31:41.789Z,4.25
2023-01-22T11:34:23.761Z,4.47
2023-01-22T11:37:11.616Z,3.38
2023-01-22T11:39:58.228Z,3.92
2023-01-22T11:43:09.945Z,2.95
2023-01-22T11:46:03.286Z,2.83
2023-01-22T11:48:45.534Z,2.30
2023-01-22T11:51:20.976Z,2.80
2023-01-22T11:54:03.712Z,6.85
2023-01-22T11:56:43.328Z,2.47
2023-01-22T11:59:13.435Z,7.40
2023-01-22T12:02:02.761Z,5.72
2023-01-22T12:04:56.420Z,7.47
2023-01-22T12:07:32.400Z,7.10
2023-01-22T12:10:20.367Z,5.18
2023-01-22T12:13:09.775Z,3.67
2023-01-22T12:16:03.527Z,4.05
2023-01-22T12:18:50.301Z,2.50
2023-01-22T12:21:21.972Z,3.35
2023-01-22T12:24:10.348Z,4.00
2023-01-22T12:26:45.509Z,4.88
2023-01-22T12:29:24.003Z,4.45
2023-01-22T12:31:55.851Z,2.15
2023-01-22T12:34:55.082Z,2.63
2023-01-22T12:37:32.275Z,2.20
2023-01-22T12:40:10.661Z,1.90
2023-01-22T12:43:00.043Z,2.15
2023-01-22T12:45:46.338Z,1.80
2023-01-22T12:48:28.987Z,2.45
2023-01-22T12:50:57.903Z,2.28
2023-01-22T12:53:26.762Z,2.60
2023-01-22T12:56:08.149Z,2.65
2023-01-22T12:58:37.842Z,2.67
2023-01-22T13:01:11.476Z,3.97
2023-01-22T13:06:21.189Z,62.85
2023-01-22T13:11:29.916Z,19.67
2023-01-22T13:14:18.225Z,6.43
2023-01-22T13:17:25.084Z,17.30
2023-01-22T13:19:52.122Z,12.95
2023-01-22T13:22:28.393Z,4.32
2023-01-22T13:24:58.183Z,4.05
2023-01-22T13:27:32.544Z,11.18
2023-01-22T13:30:19.124Z,7.00
2023-01-22T13:32:46.308Z,4.50
2023-01-22T13:35:15.164Z,2.20
2023-01-22T13:37:45.184Z,3.58
2023-01-22T13:40:27.589Z,3.50
2023-01-22T13:42:55.838Z,2.53
2023-01-22T13:45:31.762Z,3.80
2023-01-22T13:48:04.385Z,6.55
2023-01-22T13:50:32.492Z,3.90
2023-01-22T13:53:01.984Z,7.70
2023-01-22T13:55:30.270Z,6.28
2023-01-22T13:58:01.627Z,4.07
2023-01-22T14:00:34.577Z,10.05
2023-01-22T14:03:02.389Z,6.80
2023-01-22T14:05:33.799Z,10.50
2023-01-22T14:08:09.595Z,6.22
2023-01-22T14:10:36.719Z,10.40
2023-01-22T14:13:11.655Z,4.00
2023-01-22T14:15:40.080Z,5.90
2023-01-22T14:18:08.530Z,3.15
2023-01-22T14:20:38.055Z,4.32
2023-01-22T14:23:05.039Z,7.90
2023-01-22T14:25:32.246Z,4.05
2023-01-22T14:28:00.211Z,3.42
2023-01-22T14:30:27.319Z,4.90
2023-01-22T14:32:54.256Z,3.38
2023-01-22T14:35:23.796Z,2.63
2023-01-22T14:37:52.447Z,4.50
2023-01-22T14:40:21.588Z,2.95
2023-01-22T14:42:49.050Z,5.50
2023-01-22T14:45:17.998Z,3.83
2023-01-22T14:47:48.786Z,5.85
2023-01-22T14:50:16.315Z,11.32
2023-01-22T14:52:43.489Z,25.92
2023-01-22T14:55:10.514Z,29.70
2023-01-22T14:57:37.792Z,5.10
2023-01-22T15:00:07.030Z,4.85
2023-01-22T15:02:37.508Z,4.82
2023-01-22T15:05:04.852Z,6.10
2023-01-22T15:07:33.545Z,4.03
2023-01-22T15:10:01.399Z,4.97
2023-01-22T15:12:28.739Z,3.63
2023-01-22T15:14:55.620Z,5.65
2023-01-22T15:17:22.546Z,5.05
2023-01-22T15:19:49.652Z,6.03
2023-01-22T15:22:16.936Z,7.90
2023-01-22T15:24:43.972Z,6.53
2023-01-22T15:27:11.473Z,5.75
2023-01-22T15:29:38.422Z,10.38
2023-01-22T15:32:05.423Z,8.32
2023-01-22T15:34:32.351Z,5.13
2023-01-22T15:36:59.260Z,7.15
2023-01-22T15:39:26.211Z,9.30
2023-01-22T15:41:53.132Z,17.75
2023-01-22T15:44:20.027Z,40.75
2023-01-22T15:46:47.355Z,8.43
2023-01-22T15:49:14.394Z,6.85
2023-01-22T15:51:42.227Z,10.23
2023-01-22T15:54:14.172Z,10.00
2023-01-22T15:56:41.647Z,7.20
2023-01-22T15:59:08.705Z,7.47
2023-01-22T16:01:35.678Z,11.32
2023-01-22T16:04:03.856Z,5.05
2023-01-22T16:06:33.535Z,7.50
2023-01-22T16:09:01.788Z,9.88
2023-01-22T16:11:30.309Z,7.90
2023-01-22T16:13:59.092Z,8.30
2023-01-22T16:16:33.079Z,7.85
2023-01-22T16:19:01.742Z,6.72
2023-01-22T16:21:28.940Z,8.75
2023-01-22T16:23:58.377Z,8.82
2023-01-22T16:26:27.680Z,10.20
2023-01-22T16:28:56.694Z,13.15
2023-01-22T16:31:27.629Z,8.90
2023-01-22T16:33:57.253Z,7.38
2023-01-22T16:36:26.736Z,10.15
2023-01-22T16:38:53.857Z,7.15
2023-01-22T16:41:27.974Z,6.45
2023-01-22T16:44:01.827Z,9.40
2023-01-22T16:46:31.009Z,7.28
2023-01-22T16:49:02.754Z,9.05
2023-01-22T16:51:37.740Z,9.32
2023-01-22T16:54:06.616Z,9.18
2023-01-22T16:56:34.136Z,14.60
2023-01-22T16:59:01.178Z,6.45
2023-01-22T17:01:30.217Z,8.75
2023-01-22T17:03:57.272Z,9.52
2023-01-22T17:06:31.103Z,10.38
2023-01-22T17:11:24.994Z,12.57
2023-01-22T17:13:52.045Z,9.52
2023-01-22T17:16:19.323Z,7.97
2023-01-22T17:19:10.600Z,8.93
2023-01-22T17:21:37.660Z,9.50
2023-01-22T17:24:05.194Z,8.23
2023-01-22T17:26:32.257Z,8.48
2023-01-22T17:28:59.530Z,8.65
2023-01-22T17:31:27.039Z,7.70
2023-01-22T17:33:58.965Z,12.32
2023-01-22T17:36:28.251Z,13.30
2023-01-22T17:38:56.751Z,17.30
2023-01-22T17:41:25.307Z,13.98
2023-01-22T17:43:55.321Z,12.68
2023-01-22T17:46:26.217Z,14.30
2023-01-22T17:48:53.489Z,12.18
2023-01-22T17:51:23.135Z,17.10
2023-01-22T17:53:51.680Z,15.50
2023-01-22T17:56:21.815Z,12.93
2023-01-22T17:58:51.448Z,13.18
2023-01-22T18:01:21.305Z,11.85
2023-01-22T18:03:48.643Z,11.90
2023-01-22T18:06:16.087Z,13.80
2023-01-22T18:08:43.509Z,12.23
2023-01-22T18:11:14.947Z,12.70
2023-01-22T18:13:42.595Z,16.48
2023-01-22T18:16:13.763Z,18.15
2023-01-22T18:18:42.135Z,14.88
2023-01-22T18:21:19.457Z,14.40
2023-01-22T18:23:47.557Z,14.27
2023-01-22T18:26:15.630Z,16.60
2023-01-22T18:28:42.890Z,12.13
2023-01-22T18:31:13.363Z,15.10
2023-01-22T18:33:41.721Z,15.60
2023-01-22T18:36:12.372Z,14.90
2023-01-22T18:38:40.177Z,12.40
2023-01-22T18:41:11.648Z,14.55
2023-01-22T18:43:39.088Z,12.90
2023-01-22T18:46:08.476Z,14.50
2023-01-22T18:48:35.563Z,14.20
2023-01-22T18:51:03.141Z,14.73
2023-01-22T18:53:30.937Z,18.40
2023-01-22T18:56:05.348Z,17.52
2023-01-22T18:58:35.447Z,16.45
2023-01-22T19:01:13.011Z,16.50
2023-01-22T19:03:42.176Z,22.65
2023-01-22T19:06:14.240Z,18.50
2023-01-22T19:08:43.509Z,18.48
2023-01-22T19:11:12.244Z,18.20
2023-01-22T19:13:41.040Z,18.33
2023-01-22T19:16:11.122Z,16.92
2023-01-22T19:18:46.509Z,16.15
2023-01-22T19:21:19.372Z,17.63
2023-01-22T19:23:53.012Z,17.83
2023-01-22T19:26:22.309Z,16.45
2023-01-22T19:28:51.815Z,15.93
2023-01-22T19:31:22.229Z,14.10
2023-01-22T19:33:51.075Z,14.82
2023-01-22T19:36:19.322Z,16.45
2023-01-22T19:38:47.035Z,15.75
2023-01-22T19:41:14.633Z,14.70
2023-01-22T19:43:42.619Z,17.15
2023-01-22T19:46:12.463Z,16.92
2023-01-22T19:48:40.486Z,20.48
2023-01-22T19:51:10.513Z,19.95
2023-01-22T19:53:37.847Z,18.13
2023-01-22T19:56:05.743Z,20.55
2023-01-22T19:58:32.673Z,16.98
2023-01-22T20:00:59.687Z,17.17
2023-01-22T20:03:27.200Z,19.88
2023-01-22T20:05:54.260Z,28.73
2023-01-22T20:08:21.164Z,25.60
2023-01-22T20:10:51.036Z,25.00
2023-01-22T20:13:18.126Z,22.52
2023-01-22T20:15:45.320Z,22.80
2023-01-22T20:18:12.296Z,21.60
2023-01-22T20:20:39.334Z,19.60
2023-01-22T20:23:06.273Z,22.75
2023-01-22T20:25:33.280Z,20.63
2023-01-22T20:28:01.355Z,19.58
2023-01-22T20:30:29.173Z,21.58
2023-01-22T20:32:56.720Z,20.35
2023-01-22T20:35:23.927Z,21.05
2023-01-22T20:37:52.356Z,20.67
2023-01-22T20:40:19.390Z,17.27
2023-01-22T20:42:46.470Z,16.77
2023-01-22T20:45:13.545Z,19.85
2023-01-22T20:47:40.530Z,23.75
2023-01-22T20:50:08.087Z,19.98
2023-01-22T20:52:35.146Z,21.80
2023-01-22T20:55:02.747Z,30.90
2023-01-22T20:57:31.154Z,25.95
2023-01-22T20:59:58.314Z,23.08
2023-01-22T21:02:25.436Z,18.63
2023-01-22T21:04:53.428Z,15.85
2023-01-22T21:07:20.755Z,19.00
2023-01-22T21:09:47.825Z,23.27
2023-01-22T21:12:14.747Z,22.70
2023-01-22T21:14:41.885Z,20.08
2023-01-22T21:17:08.980Z,20.83
2023-01-22T21:19:36.062Z,16.85
2023-01-22T21:22:07.120Z,17.15
2023-01-22T21:24:34.454Z,21.08
2023-01-22T21:27:01.573Z,29.58
2023-01-22T21:29:28.568Z,25.23
2023-01-22T21:31:56.035Z,21.33
2023-01-22T21:34:25.657Z,17.23
2023-01-22T21:36:54.524Z,17.77
2023-01-22T21:39:24.699Z,18.38
2023-01-22T21:42:12.560Z,18.25
2023-01-22T21:44:58.672Z,18.85
2023-01-22T21:47:25.690Z,18.73
2023-01-22T21:49:53.349Z,30.60
2023-01-22T21:52:20.525Z,22.80
2023-01-22T21:54:47.543Z,17.63
2023-01-22T21:57:16.260Z,14.93
2023-01-22T21:59:45.634Z,15.95
2023-01-22T22:02:15.360Z,16.27
2023-01-22T22:04:42.931Z,17.23
2023-01-22T22:07:11.927Z,16.73
2023-01-22T22:09:39.121Z,16.65
2023-01-22T22:12:06.631Z,17.05
2023-01-22T22:14:34.599Z,15.35
2023-01-22T22:17:01.853Z,20.30
2023-01-22T22:19:29.034Z,16.95
2023-01-22T22:21:56.115Z,16.50
2023-01-22T22:24:23.149Z,20.35
2023-01-22T22:26:50.268Z,25.10
2023-01-22T22:29:17.252Z,17.02
2023-01-22T22:31:48.110Z,14.43
2023-01-22T22:34:15.413Z,15.48
2023-01-22T22:36:42.490Z,16.65
2023-01-22T22:39:10.415Z,13.98
2023-01-22T22:41:38.618Z,15.57
2023-01-22T22:44:08.043Z,13.60
2023-01-22T22:46:37.075Z,13.32
2023-01-22T22:49:05.028Z,17.38
2023-01-22T22:51:37.419Z,16.10
2023-01-22T22:54:15.018Z,18.00
2023-01-22T22:56:45.481Z,16.85
2023-01-22T22:59:13.768Z,15.82
2023-01-22T23:01:40.713Z,17.25
2023-01-22T23:04:08.589Z,14.75
2023-01-22T23:06:36.894Z,14.73
2023-01-22T23:09:16.142Z,12.20
2023-01-22T23:11:47.525Z,15.15
2023-01-22T23:14:14.440Z,14.63
2023-01-22T23:16:44.875Z,15.02
2023-01-22T23:19:18.544Z,13.65
2023-01-22T23:21:46.728Z,12.57
2023-01-22T23:24:14.679Z,12.00
2023-01-22T23:26:43.120Z,12.90
2023-01-22T23:29:12.897Z,16.08
2023-01-22T23:31:40.815Z,12.60
2023-01-22T23:34:12.101Z,19.98
2023-01-22T23:36:40.930Z,20.42
2023-01-22T23:39:07.993Z,16.33
2023-01-22T23:41:38.864Z,15.93
2023-01-22T23:44:06.721Z,16.52
2023-01-22T23:46:36.367Z,13.55
2023-01-22T23:49:04.545Z,12.77
2023-01-22T23:51:32.262Z,14.27
2023-01-22T23:53:59.473Z,11.98
2023-01-22T23:56:31.813Z,13.15
2023-01-22T23:58:59.996Z,16.00
